Newvida — V7KQ7 — position and weather

sailwx.info

Track history (hours):
 
Tides and Currents Weather Stations Pressure Air Temp Water Temp Dewpoint Dewpoint Depression Visibility Wind Speed Wind Dir Waves Ship Positions

Newvida

Last reported at 2017-Mar-25 14:34 UTC. Time now 2017-Mar-29 03:23 UTC.
Position N 18°17' W 064°53'.

Length 56 m; draft 2.4 m.

Type: Pleasure craft. MMSI: 538080049.

Date/timePositionNaut miles runAvg speedWind from/ knotsBaromVisibWave heightAir tempDewpointWater temp
2017-Mar-25 14:34N 18°17' W 064°53'0 0.0
2017-Mar-23 23:33N 18°17' W 064°53'8 8.3
2017-Mar-23 22:33N 18°23' W 064°46'3 3.3
2017-Mar-23 21:33N 18°23' W 064°43'0 0.0
2017-Mar-23 20:33N 18°23' W 064°43'0 0.0
2017-Mar-23 19:33N 18°23' W 064°43'7 7.5
2017-Mar-23 18:33N 18°24' W 064°35'8 2.4
2017-Mar-23 15:26N 18°26' W 064°27'0 0.0
2017-Mar-23 13:32N 18°26' W 064°27'0 0.0
2017-Mar-23 11:32N 18°26' W 064°27'  
2017-Mar-15 19:12N 18°21' W 064°35'710.9
2017-Mar-15 18:33N 18°23' W 064°42'1 0.9
2017-Mar-15 17:31N 18°23' W 064°43'0 0.0
2017-Mar-15 16:07N 18°23' W 064°43'0 0.0
2017-Mar-15 15:31N 18°23' W 064°43'  
Track history (hours):
 
Tides and Currents Weather Stations Pressure Air Temp Water Temp Dewpoint Dewpoint Depression Visibility Wind Speed Wind Dir Waves Ship Positions

Newvida

Last reported at 2017-Mar-25 14:34 UTC. Time now 2017-Mar-29 03:23 UTC.
Position N 18°17' W 064°53'.

Length 56 m; draft 2.4 m.

Type: Pleasure craft. MMSI: 538080049.

Date/timePositionNaut miles runAvg speedWind from/ knotsBaromVisibWave heightAir tempDewpointWater temp
2017-Mar-25 14:34N 18°17' W 064°53'0 0.0
2017-Mar-23 23:33N 18°17' W 064°53'8 8.3
2017-Mar-23 22:33N 18°23' W 064°46'3 3.3
2017-Mar-23 21:33N 18°23' W 064°43'0 0.0
2017-Mar-23 20:33N 18°23' W 064°43'0 0.0
2017-Mar-23 19:33N 18°23' W 064°43'7 7.5
2017-Mar-23 18:33N 18°24' W 064°35'8 2.4
2017-Mar-23 15:26N 18°26' W 064°27'0 0.0
2017-Mar-23 13:32N 18°26' W 064°27'0 0.0
2017-Mar-23 11:32N 18°26' W 064°27'  
2017-Mar-15 19:12N 18°21' W 064°35'710.9
2017-Mar-15 18:33N 18°23' W 064°42'1 0.9
2017-Mar-15 17:31N 18°23' W 064°43'0 0.0
2017-Mar-15 16:07N 18°23' W 064°43'0 0.0
2017-Mar-15 15:31N 18°23' W 064°43'  

Dump ship's entire track history